Time;durP1;ratioP1;P1;durP2;ratioP2;P2;SDS_P1;SDS_P2;PMS_P1;PMS_P2;Temp;Humidity;BMP_temperature;BMP_pressure;BME280_temperature;BME280_humidity;BME280_pressure;Samples;Min_cycle;Max_cycle;Signal;HPM_P1;HPM_P2
2022/06/07 00:04:54;;;;;;;4.53;1.00;;;;;;;14.83;100.00;99800.12;1791286;78;24187;-56
2022/06/07 00:07:22;;;;;;;3.65;0.80;;;;;;;14.53;100.00;99798.44;1774322;79;21030;-56
2022/06/07 00:09:48;;;;;;;10.65;1.30;;;;;;;14.33;100.00;99811.84;1774595;79;21158;-57
2022/06/07 00:12:17;;;;;;;8.48;0.88;;;;;;;14.13;100.00;99808.14;1770829;79;21061;-57
2022/06/07 00:14:44;;;;;;;9.15;1.10;;;;;;;13.98;100.00;99806.38;1769934;79;21089;-57
2022/06/07 00:17:12;;;;;;;9.15;1.27;;;;;;;13.87;100.00;99817.84;1773051;79;21064;-57
2022/06/07 00:19:39;;;;;;;8.03;1.15;;;;;;;13.78;100.00;99809.45;1772381;79;20969;-57
2022/06/07 00:22:05;;;;;;;8.55;1.27;;;;;;;13.67;100.00;99803.80;1771044;79;22231;-57
2022/06/07 00:24:32;;;;;;;6.58;0.80;;;;;;;13.57;100.00;99803.48;1776112;79;22056;-57
2022/06/07 00:27:00;;;;;;;2.45;0.90;;;;;;;13.48;100.00;99800.84;1774272;79;21461;-57
2022/06/07 00:29:26;;;;;;;9.53;1.45;;;;;;;13.38;100.00;99804.17;1770812;79;22151;-57
2022/06/07 00:31:53;;;;;;;11.63;1.32;;;;;;;13.27;100.00;99802.59;1741393;79;22407;-57
2022/06/07 00:34:20;;;;;;;8.23;1.10;;;;;;;13.21;100.00;99795.70;1770450;79;21076;-57
2022/06/07 00:36:48;;;;;;;3.10;1.00;;;;;;;13.18;100.00;99805.36;1767799;79;21018;-57
2022/06/07 00:39:14;;;;;;;7.62;1.42;;;;;;;13.17;100.00;99804.96;1768630;79;21076;-57
2022/06/07 00:41:41;;;;;;;2.85;1.07;;;;;;;13.12;100.00;99802.95;1768020;79;21664;-57
2022/06/07 00:44:39;;;;;;;2.85;0.80;;;;;;;13.07;100.00;99804.58;1773017;80;21065;-57
2022/06/07 00:47:17;;;;;;;4.08;0.80;;;;;;;13.02;100.00;99802.60;1776481;79;21261;-57
2022/06/07 00:49:52;;;;;;;1.07;0.90;;;;;;;12.96;100.00;99802.97;1765675;80;21063;-57
2022/06/07 00:52:20;;;;;;;;;;;;;;;12.88;100.00;99805.23;1777753;79;21070;-57
2022/06/07 00:54:49;;;;;;;1.02;0.70;;;;;;;12.80;100.00;99804.32;1775638;79;20191;-57
2022/06/07 00:57:29;;;;;;;1.10;0.80;;;;;;;12.72;100.00;99801.18;1771712;79;21539;-57
2022/06/07 00:59:56;;;;;;;1.87;0.80;;;;;;;12.64;100.00;99800.73;1775682;79;22169;-57
2022/06/07 01:02:23;;;;;;;4.33;0.90;;;;;;;12.58;100.00;99795.69;1777121;79;21312;-56
2022/06/07 01:04:51;;;;;;;3.42;0.75;;;;;;;12.52;100.00;99802.75;1747870;80;21423;-57
2022/06/07 01:12:55;;;;;;;1.47;0.80;;;;;;;12.32;100.00;99801.17;1748998;80;21525;-57
2022/06/07 01:15:24;;;;;;;2.47;0.60;;;;;;;12.28;100.00;99805.45;1741887;80;21022;-57
2022/06/07 01:17:51;;;;;;;4.00;0.80;;;;;;;12.25;100.00;99797.04;1743251;80;21079;-57
2022/06/07 01:20:18;;;;;;;3.27;0.80;;;;;;;12.26;100.00;99801.96;1743657;80;21114;-57
2022/06/07 01:22:45;;;;;;;3.77;0.80;;;;;;;12.27;100.00;99805.06;1740067;80;21066;-57
2022/06/07 01:25:11;;;;;;;0.90;0.68;;;;;;;12.31;100.00;99802.13;1738554;80;21145;-57
2022/06/07 01:27:39;;;;;;;1.57;0.70;;;;;;;12.36;100.00;99804.56;1744385;81;20989;-57
2022/06/07 01:30:07;;;;;;;1.00;0.80;;;;;;;12.42;100.00;99805.56;1735847;80;21032;-57
2022/06/07 01:32:34;;;;;;;3.17;0.70;;;;;;;12.40;100.00;99807.02;1746390;80;21415;-56
2022/06/07 01:35:01;;;;;;;4.55;1.05;;;;;;;12.34;100.00;99805.11;1742787;80;21436;-57
2022/06/07 01:37:28;;;;;;;1.00;0.72;;;;;;;12.25;100.00;99802.95;1744440;80;21134;-57
2022/06/07 01:42:40;;;;;;;2.08;0.80;;;;;;;12.18;100.00;99804.20;1741012;80;21756;-57
2022/06/07 01:45:08;;;;;;;4.37;0.70;;;;;;;12.19;100.00;99805.48;1745075;80;21113;-56
2022/06/07 01:47:35;;;;;;;3.33;0.70;;;;;;;12.19;100.00;99796.51;1741086;80;21468;-56
2022/06/07 01:50:02;;;;;;;1.65;0.80;;;;;;;12.15;100.00;99800.34;1744066;80;21456;-56
2022/06/07 01:52:31;;;;;;;0.98;0.80;;;;;;;12.13;100.00;99798.59;1747901;80;21071;-56
2022/06/07 01:55:07;;;;;;;1.85;0.70;;;;;;;12.08;100.00;99794.38;1747551;80;21051;-56
2022/06/07 01:57:40;;;;;;;1.65;0.80;;;;;;;12.07;100.00;99795.36;1742352;80;21070;-55
2022/06/07 02:00:10;;;;;;;2.12;0.75;;;;;;;12.04;100.00;99800.91;1743221;80;21115;-55
2022/06/07 02:02:46;;;;;;;3.75;0.88;;;;;;;12.01;100.00;99799.71;1745676;80;21916;-55
2022/06/07 02:05:15;;;;;;;3.15;0.90;;;;;;;11.96;100.00;99800.45;1765904;80;21121;-55
2022/06/07 02:07:44;;;;;;;2.55;0.80;;;;;;;11.91;100.00;99797.97;1774858;79;21168;-52
2022/06/07 02:10:12;;;;;;;5.00;0.70;;;;;;;11.85;100.00;99807.75;1775574;80;20899;-54
2022/06/07 02:12:39;;;;;;;1.62;0.78;;;;;;;11.80;100.00;99803.56;1778677;78;20894;-54
2022/06/07 02:15:07;;;;;;;1.10;0.80;;;;;;;11.75;100.00;99802.44;1775923;79;21861;-53
2022/06/07 02:17:33;;;;;;;3.00;0.78;;;;;;;11.72;100.00;99798.53;1776512;79;21044;-53
2022/06/07 02:20:09;;;;;;;2.08;0.70;;;;;;;11.74;100.00;99804.25;1773089;79;21034;-53
2022/06/07 02:22:38;;;;;;;3.15;0.70;;;;;;;11.79;100.00;99797.77;1748062;80;20961;-54
2022/06/07 02:25:05;;;;;;;1.30;0.70;;;;;;;11.82;100.00;99801.19;1777979;79;20883;-56
2022/06/07 02:27:32;;;;;;;1.75;0.90;;;;;;;11.80;100.00;99799.52;1753572;80;21230;-53
2022/06/07 02:29:59;;;;;;;3.62;0.90;;;;;;;11.78;100.00;99799.59;1751023;80;21615;-52
2022/06/07 02:32:28;;;;;;;3.35;1.00;;;;;;;11.79;100.00;99797.77;1775881;79;20903;-53
2022/06/07 02:34:57;;;;;;;3.08;0.80;;;;;;;11.81;100.00;99803.95;1769510;80;20906;-53
2022/06/07 02:37:25;;;;;;;3.08;0.90;;;;;;;11.80;100.00;99802.21;1773575;79;20916;-54
2022/06/07 02:39:52;;;;;;;1.15;0.70;;;;;;;11.78;100.00;99799.59;1776711;79;21830;-56
2022/06/07 02:42:19;;;;;;;1.00;0.90;;;;;;;11.78;100.00;99805.45;1779771;80;20946;-53
2022/06/07 02:44:46;;;;;;;1.35;0.80;;;;;;;11.77;100.00;99803.70;1755087;80;20934;-52
2022/06/07 02:47:13;;;;;;;1.77;0.80;;;;;;;11.74;100.00;99800.66;1777328;80;21763;-54
2022/06/07 02:49:41;;;;;;;1.70;0.80;;;;;;;11.74;100.00;99811.44;1776888;79;20941;-52
2022/06/07 02:52:08;;;;;;;4.33;0.80;;;;;;;11.74;100.00;99808.30;1770365;80;22056;-51
2022/06/07 02:54:38;;;;;;;1.20;0.80;;;;;;;11.77;100.00;99814.02;1771031;80;20895;-53
2022/06/07 02:57:06;;;;;;;1.35;0.82;;;;;;;11.81;100.00;99810.23;1771617;79;20947;-56
2022/06/07 02:59:32;;;;;;;1.70;0.80;;;;;;;11.86;100.00;99805.45;1776176;79;20977;-53
2022/06/07 03:02:00;;;;;;;3.10;0.80;;;;;;;11.91;100.00;99806.58;1774499;80;20942;-53
2022/06/07 03:04:26;;;;;;;2.70;1.07;;;;;;;11.96;100.00;99799.97;1776050;79;21100;-54
2022/06/07 03:06:53;;;;;;;4.03;0.90;;;;;;;12.03;100.00;99801.38;1766276;80;21564;-52
2022/06/07 03:09:20;;;;;;;1.02;0.70;;;;;;;12.10;100.00;99800.09;1707518;82;21066;-54
2022/06/07 03:11:47;;;;;;;2.62;0.80;;;;;;;12.18;100.00;99798.33;1767896;79;21040;-52
2022/06/07 03:14:13;;;;;;;2.20;0.70;;;;;;;12.27;100.00;99799.19;1758314;80;21037;-53
2022/06/07 03:16:42;;;;;;;1.77;1.00;;;;;;;12.39;100.00;99801.70;1772208;79;21030;-53
2022/06/07 03:19:09;;;;;;;1.05;0.80;;;;;;;12.50;100.00;99799.30;1770523;79;21029;-52
2022/06/07 03:21:39;;;;;;;3.87;0.90;;;;;;;12.63;100.00;99802.17;1761875;80;21073;-54
2022/06/07 03:24:07;;;;;;;1.22;0.80;;;;;;;12.74;100.00;99793.00;1769529;80;20895;-53
2022/06/07 03:26:35;;;;;;;1.82;0.85;;;;;;;12.87;100.00;99790.85;1773038;80;21009;-56
2022/06/07 03:29:10;;;;;;;2.37;0.70;;;;;;;13.02;100.00;99790.92;1768731;80;21086;-53
2022/06/07 03:31:37;;;;;;;2.87;0.90;;;;;;;13.13;100.00;99785.34;1742766;80;21126;-54
2022/06/07 03:34:07;;;;;;;3.02;0.98;;;;;;;13.27;100.00;99793.97;1772029;80;20954;-54
2022/06/07 03:36:35;;;;;;;2.25;0.90;;;;;;;13.38;100.00;99794.22;1769681;79;21056;-54
2022/06/07 03:39:06;;;;;;;2.58;0.80;;;;;;;13.48;100.00;99794.08;1762774;79;21425;-56
2022/06/07 03:41:33;;;;;;;3.52;0.82;;;;;;;13.57;100.00;99788.13;1770598;80;21099;-54
2022/06/07 03:44:04;;;;;;;7.87;0.90;;;;;;;13.66;100.00;99793.94;1769630;80;21122;-54
2022/06/07 03:46:32;;;;;;;1.10;0.82;;;;;;;13.75;100.00;99787.98;1768440;80;21096;-54
2022/06/07 03:49:00;;;;;;;1.07;0.98;;;;;;;13.85;100.00;99787.81;1734795;80;21096;-53
2022/06/07 03:51:29;;;;;;;3.70;0.78;;;;;;;13.96;100.00;99788.00;1763245;79;21050;-55
2022/06/07 03:53:56;;;;;;;3.05;0.95;;;;;;;14.07;100.00;99789.58;1758445;79;21097;-53
2022/06/07 03:56:23;;;;;;;2.35;0.80;;;;;;;14.19;100.00;99787.48;1767447;79;21021;-53
2022/06/07 03:58:51;;;;;;;1.12;0.95;;;;;;;14.32;100.00;99781.66;1766074;79;21483;-52
2022/06/07 04:01:20;;;;;;;0.93;0.82;;;;;;;14.46;100.00;99774.55;1767316;80;21084;-55
2022/06/07 04:03:50;;;;;;;1.95;1.00;;;;;;;14.59;100.00;99771.43;1767057;80;21043;-53
2022/06/07 04:06:25;;;;;;;1.67;0.95;;;;;;;14.72;100.00;99778.66;1770317;80;21517;-53
2022/06/07 04:08:52;;;;;;;1.10;0.90;;;;;;;14.87;100.00;99780.87;1767895;80;21113;-55
2022/06/07 04:11:22;;;;;;;4.17;0.88;;;;;;;15.03;100.00;99782.96;1772476;80;21037;-56
2022/06/07 04:13:56;;;;;;;;;;;;;;;15.18;100.00;99779.71;1771954;79;21029;-53
2022/06/07 04:16:26;;;;;;;2.52;0.80;;;;;;;15.32;100.00;99777.42;1772085;80;20226;-53
2022/06/07 04:18:55;;;;;;;2.47;1.00;;;;;;;15.46;100.00;99777.38;1770058;80;21232;-56
2022/06/07 04:21:22;;;;;;;1.10;0.75;;;;;;;15.61;100.00;99779.08;1769947;80;21107;-52
2022/06/07 04:23:49;;;;;;;1.42;0.68;;;;;;;15.76;100.00;99777.14;1767099;80;21114;-52
2022/06/07 04:26:23;;;;;;;2.42;0.85;;;;;;;15.88;100.00;99771.75;1767649;80;21332;-56
2022/06/07 04:28:50;;;;;;;1.02;0.70;;;;;;;16.03;100.00;99778.43;1772148;80;21515;-54
2022/06/07 04:31:20;;;;;;;1.72;0.75;;;;;;;16.16;100.00;99775.25;1769023;80;21188;-57
2022/06/07 04:33:46;;;;;;;1.37;0.70;;;;;;;16.30;100.00;99772.90;1739689;80;21093;-54
2022/06/07 04:36:20;;;;;;;1.60;0.70;;;;;;;16.43;100.00;99771.89;1764916;80;21477;-56
2022/06/07 04:38:48;;;;;;;1.82;0.53;;;;;;;16.57;100.00;99775.86;1757666;80;21092;-55
2022/06/07 04:41:17;;;;;;;0.47;0.47;;;;;;;16.72;100.00;99777.11;1771446;80;21047;-55
2022/06/07 04:43:50;;;;;;;2.65;0.45;;;;;;;16.97;100.00;99760.73;1766951;80;21148;-55
2022/06/07 04:46:18;;;;;;;0.42;0.35;;;;;;;16.97;100.00;99760.73;1755184;80;21460;-55
2022/06/07 04:48:48;;;;;;;0.60;0.45;;;;;;;17.12;100.00;99765.51;1764853;80;21051;-57
2022/06/07 04:51:27;;;;;;;0.57;0.40;;;;;;;17.24;100.00;99762.75;1763442;79;21069;-56
2022/06/07 04:54:03;;;;;;;3.12;0.50;;;;;;;17.38;100.00;99766.64;1767402;79;21026;-55
2022/06/07 04:56:35;;;;;;;2.27;0.37;;;;;;;17.54;100.00;99768.19;1763068;79;21929;-56
2022/06/07 04:59:03;;;;;;;0.60;0.50;;;;;;;17.67;100.00;99773.98;1766342;80;21021;-57
2022/06/07 05:01:34;;;;;;;1.35;0.53;;;;;;;17.79;100.00;99776.23;1702793;82;21135;-55
2022/06/07 05:04:04;;;;;;;0.82;0.60;;;;;;;17.91;100.00;99774.42;1709163;82;21042;-53
2022/06/07 05:06:37;;;;;;;1.72;0.50;;;;;;;18.04;100.00;99775.19;1701626;82;21038;-56
2022/06/07 05:09:13;;;;;;;0.68;0.60;;;;;;;18.17;100.00;99781.42;1764423;80;21248;-54
2022/06/07 05:11:41;;;;;;;3.72;1.07;;;;;;;18.27;100.00;99775.62;1759308;79;20939;-55
2022/06/07 05:14:08;;;;;;;0.57;0.50;;;;;;;18.41;100.00;99774.50;1756629;79;21503;-53
2022/06/07 05:16:39;;;;;;;0.70;0.50;;;;;;;18.52;100.00;99776.75;1757072;80;21101;-55
2022/06/07 05:19:06;;;;;;;3.42;0.50;;;;;;;18.65;100.00;99779.37;1735816;80;21062;-58
2022/06/07 05:21:33;;;;;;;1.50;0.65;;;;;;;18.77;100.00;99781.61;1760788;80;21113;-54
2022/06/07 05:24:00;;;;;;;1.65;0.68;;;;;;;18.89;100.00;99783.31;1758612;80;21087;-54
2022/06/07 05:26:39;;;;;;;1.70;0.60;;;;;;;19.01;100.00;99781.45;1760641;80;21135;-54
2022/06/07 05:29:11;;;;;;;1.85;0.50;;;;;;;19.13;100.00;99783.18;1763478;80;21707;-55
2022/06/07 05:31:37;;;;;;;0.85;0.60;;;;;;;19.24;100.00;99783.12;1732444;80;21584;-54
2022/06/07 05:34:04;;;;;;;2.15;0.50;;;;;;;19.36;100.00;99783.98;1757075;80;21129;-54
2022/06/07 05:36:31;;;;;;;1.10;0.60;;;;;;;19.44;100.00;99786.43;1755021;80;21045;-54
2022/06/07 05:38:59;;;;;;;3.17;0.60;;;;;;;19.54;100.00;99786.56;1754615;80;20908;-57
2022/06/07 05:41:29;;;;;;;0.60;0.60;;;;;;;19.64;100.00;99787.52;1759518;79;21750;-55
2022/06/07 05:43:57;;;;;;;1.72;0.60;;;;;;;19.74;100.00;99788.94;1763471;80;20978;-54
2022/06/07 05:46:25;;;;;;;0.98;0.50;;;;;;;19.83;100.00;99786.29;1761956;80;21069;-53
2022/06/07 05:48:54;;;;;;;0.90;0.50;;;;;;;19.96;100.00;99784.25;1763378;80;20915;-53
2022/06/07 05:51:22;;;;;;;0.82;0.50;;;;;;;20.05;100.00;99783.09;1760358;80;20899;-58
2022/06/07 05:53:54;;;;;;;10.38;0.70;;;;;;;20.10;100.00;99776.20;1757369;79;21018;-56
2022/06/07 05:56:22;;;;;;;0.50;0.50;;;;;;;20.17;100.00;99775.17;1763753;79;21057;-56
2022/06/07 05:58:49;;;;;;;0.60;0.50;;;;;;;20.25;100.00;99778.96;1761774;80;21126;-56
2022/06/07 06:01:16;;;;;;;0.55;0.40;;;;;;;20.35;100.00;99779.05;1758607;79;21082;-57
2022/06/07 06:03:45;;;;;;;0.40;0.40;;;;;;;20.42;100.00;99782.97;1762742;79;20935;-57
2022/06/07 06:11:43;;;;;;;0.87;0.50;;;;;;;20.50;100.00;99776.86;1612598;80;985045;-57
2022/06/07 06:15:08;;;;;;;0.60;0.50;;;;;;;20.50;100.00;99776.86;1554421;80;975448;-57
2022/06/07 06:17:35;;;;;;;1.03;0.37;;;;;;;20.50;100.00;99776.86;1610676;80;975328;-56
2022/06/07 06:20:09;;;;;;;0.85;0.40;;;;;;;21.00;100.00;99774.54;1700870;79;975112;-57
2022/06/07 06:22:36;;;;;;;0.55;0.42;;;;;;;21.02;100.00;99773.01;1755078;80;21046;-58
2022/06/07 06:25:10;;;;;;;0.80;0.40;;;;;;;21.04;100.00;99773.23;1552584;80;975531;-58
2022/06/07 06:31:35;;;;;;;0.30;0.30;;;;;;;21.04;100.00;99773.23;1509027;80;975488;-59
2022/06/07 06:34:07;;;;;;;3.20;0.70;;;;;;;21.04;100.00;99773.23;1539159;80;984410;-57
2022/06/07 06:38:06;;;;;;;0.33;0.30;;;;;;;21.04;100.00;99773.23;1526956;80;984519;-58
2022/06/07 06:42:37;;;;;;;2.05;0.30;;;;;;;21.04;100.00;99773.23;1536259;80;985075;-58
2022/06/07 06:46:13;;;;;;;0.33;0.20;;;;;;;21.04;100.00;99773.23;1529937;80;975485;-60
2022/06/07 06:55:27;;;;;;;0.20;0.20;;;;;;;21.04;100.00;99773.23;1518734;80;975754;-59
2022/06/07 07:04:41;;;;;;;2.05;0.20;;;;;;;21.04;100.00;99773.23;1526008;80;985228;-59
2022/06/07 07:07:47;;;;;;;1.02;0.28;;;;;;;21.04;100.00;99773.23;1520941;80;984881;-59
2022/06/07 07:10:39;;;;;;;0.30;0.20;;;;;;;21.04;100.00;99773.23;1517297;80;975482;-58
2022/06/07 07:14:53;;;;;;;0.58;0.30;;;;;;;21.04;100.00;99773.23;1513934;80;985267;-61
2022/06/07 07:18:15;;;;;;;0.30;0.30;;;;;;;21.04;100.00;99773.23;1515552;80;984904;-60
2022/06/07 07:22:22;;;;;;;4.03;0.65;;;;;;;21.04;100.00;99773.23;1523047;80;985374;-60
2022/06/07 07:25:16;;;;;;;8.83;0.40;;;;;;;21.04;100.00;99773.23;1517766;80;975325;-60
2022/06/07 07:38:11;;;;;;;0.47;0.28;;;;;;;21.04;100.00;99773.23;1519473;80;977650;-60
2022/06/07 07:40:41;;;;;;;1.75;0.20;;;;;;;21.04;100.00;99773.23;1756117;79;21132;-60
2022/06/07 07:50:44;;;;;;;0.72;0.20;;;;;;;22.54;100.00;99745.75;1547091;80;975601;-61
2022/06/07 07:53:12;;;;;;;0.50;0.20;;;;;;;22.54;100.00;99745.75;1734310;79;975522;-59
2022/06/07 07:55:51;;;;;;;0.35;0.30;;;;;;;22.91;100.00;99735.30;1525692;79;975416;-61
2022/06/07 07:58:20;;;;;;;1.05;0.30;;;;;;;22.91;100.00;99735.30;1729070;81;22148;-60
2022/06/07 08:00:47;;;;;;;2.83;0.30;;;;;;;23.06;100.00;99740.63;1758301;79;21051;-62
2022/06/07 08:03:15;;;;;;;0.30;0.30;;;;;;;23.12;100.00;99740.53;1762266;79;21078;-61
2022/06/07 08:05:43;;;;;;;0.95;0.30;;;;;;;23.25;100.00;99736.39;1759807;80;21543;-61
2022/06/07 08:08:10;;;;;;;0.72;0.30;;;;;;;23.38;100.00;99745.12;1763036;79;21520;-61
2022/06/07 08:10:38;;;;;;;0.40;0.30;;;;;;;23.50;100.00;99738.05;1763536;80;21187;-62
2022/06/07 08:13:05;;;;;;;0.20;0.20;;;;;;;23.57;100.00;99744.13;1757142;79;21034;-61
2022/06/07 08:15:33;;;;;;;1.75;0.30;;;;;;;23.67;100.00;99742.16;1762406;80;21021;-61
2022/06/07 08:18:02;;;;;;;0.70;0.30;;;;;;;23.77;100.00;99743.46;1755406;80;21031;-62
2022/06/07 08:20:32;;;;;;;1.30;0.30;;;;;;;23.85;100.00;99737.17;1729892;81;21355;-60
2022/06/07 08:22:58;;;;;;;0.30;0.30;;;;;;;23.90;100.00;99741.19;1760304;80;21231;-61
2022/06/07 08:25:25;;;;;;;0.30;0.30;;;;;;;23.90;100.00;99738.44;1753156;80;21058;-62
2022/06/07 08:27:52;;;;;;;0.20;0.20;;;;;;;23.93;100.00;99728.48;1763489;80;21083;-61
2022/06/07 08:30:20;;;;;;;1.05;0.35;;;;;;;23.98;100.00;99723.89;1760237;80;21104;-61
2022/06/07 08:32:47;;;;;;;0.30;0.28;;;;;;;24.03;100.00;99733.38;1759752;79;21025;-61
2022/06/07 08:38:01;;;;;;;1.65;0.30;;;;;;;24.07;100.00;99730.64;1753806;80;20983;-62
2022/06/07 08:40:33;;;;;;;0.47;0.20;;;;;;;24.04;100.00;99730.98;1767063;80;20950;-61
2022/06/07 08:43:03;;;;;;;1.05;0.20;;;;;;;24.02;100.00;99733.53;1759966;80;20950;-61
2022/06/07 08:45:37;;;;;;;1.05;0.30;;;;;;;23.98;100.00;99730.25;1763235;80;21058;-62
2022/06/07 08:48:13;;;;;;;0.33;0.30;;;;;;;23.96;100.00;99732.80;1718278;82;21629;-62
2022/06/07 08:50:44;;;;;;;0.45;0.37;;;;;;;23.90;100.00;99731.56;1717507;82;21438;-61
2022/06/07 08:53:22;;;;;;;0.30;0.30;;;;;;;23.84;100.00;99733.55;1715037;82;21046;-61
2022/06/07 08:55:53;;;;;;;0.20;0.20;;;;;;;23.76;100.00;99730.23;1716749;82;21032;-61
2022/06/07 08:58:31;;;;;;;0.70;0.30;;;;;;;23.68;100.00;99726.55;1715351;82;20919;-62
2022/06/07 09:01:03;;;;;;;0.28;0.23;;;;;;;23.59;100.00;99727.48;1762405;80;21233;-62
2022/06/07 09:03:39;;;;;;;0.20;0.20;;;;;;;23.51;100.00;99726.04;1764275;80;21311;-62
2022/06/07 09:06:17;;;;;;;0.40;0.30;;;;;;;23.45;100.00;99726.13;1765517;80;21186;-62
2022/06/07 09:08:51;;;;;;;0.75;0.28;;;;;;;23.40;100.00;99722.46;1765226;80;20934;-63
2022/06/07 09:14:21;;;;;;;2.20;0.20;;;;;;;23.31;100.00;99723.40;1715261;80;21221;-60
2022/06/07 09:16:48;;;;;;;0.60;0.30;;;;;;;23.30;100.00;99723.58;1764268;80;20990;-62
2022/06/07 09:19:19;;;;;;;1.52;0.50;;;;;;;23.30;100.00;99723.07;1764799;80;21394;-62
2022/06/07 09:21:45;;;;;;;0.40;0.40;;;;;;;23.31;100.00;99717.91;1741980;80;21549;-63
2022/06/07 09:24:32;;;;;;;0.57;0.30;;;;;;;23.32;100.00;99713.28;1763591;80;21043;-62
2022/06/07 09:27:20;;;;;;;1.12;0.30;;;;;;;23.31;100.00;99715.16;1724229;80;21161;-61
2022/06/07 09:29:56;;;;;;;0.78;0.30;;;;;;;23.30;100.00;99710.72;1760072;80;21081;-61
2022/06/07 09:32:26;;;;;;;0.80;0.33;;;;;;;23.35;100.00;99712.47;1760341;80;22187;-62
2022/06/07 09:35:00;;;;;;;0.70;0.30;;;;;;;23.42;100.00;99709.09;1761635;80;21066;-61
2022/06/07 09:37:43;;;;;;;0.30;0.30;;;;;;;23.42;100.00;99711.33;1751358;80;22242;-62
2022/06/07 09:40:31;;;;;;;0.30;0.30;;;;;;;23.40;100.00;99714.22;1668457;82;21193;-61
2022/06/07 09:43:21;;;;;;;1.35;0.40;;;;;;;23.38;100.00;99705.30;1755478;80;20964;-61
2022/06/07 09:46:00;;;;;;;0.95;0.40;;;;;;;23.38;100.00;99705.30;1759781;80;22514;-61
2022/06/07 09:48:40;;;;;;;0.30;0.28;;;;;;;23.35;100.00;99701.99;1758068;80;21269;-62
2022/06/07 09:51:21;;;;;;;0.30;0.30;;;;;;;23.31;100.00;99702.80;1760350;79;21256;-61
2022/06/07 09:53:58;;;;;;;0.40;0.30;;;;;;;23.31;100.00;99701.94;1764178;80;21083;-60
2022/06/07 09:56:49;;;;;;;0.78;0.30;;;;;;;23.29;100.00;99697.13;1757514;80;21034;-61
2022/06/07 09:59:39;;;;;;;0.60;0.40;;;;;;;23.26;100.00;99699.67;1756105;80;21063;-61
2022/06/07 10:02:22;;;;;;;1.57;0.20;;;;;;;23.22;100.00;99694.66;1759902;79;21091;-62
2022/06/07 10:05:06;;;;;;;0.25;0.25;;;;;;;23.23;100.00;99687.61;1758790;80;21445;-60
2022/06/07 10:07:44;;;;;;;0.62;0.30;;;;;;;23.29;100.00;99689.76;1760735;80;21174;-61
2022/06/07 10:10:41;;;;;;;0.30;0.28;;;;;;;23.34;100.00;99691.52;1762937;80;21083;-61
2022/06/07 10:13:22;;;;;;;1.75;0.30;;;;;;;23.37;100.00;99681.59;1766390;80;21022;-60
2022/06/07 10:16:22;;;;;;;0.40;0.30;;;;;;;23.40;100.00;99684.52;1760134;80;21447;-61
2022/06/07 10:19:15;;;;;;;1.30;0.37;;;;;;;23.40;100.00;99679.89;1762293;80;21074;-61
2022/06/07 10:22:21;;;;;;;0.30;0.30;;;;;;;23.44;100.00;99678.21;1757362;80;23052;-61
2022/06/07 10:25:11;;;;;;;0.40;0.30;;;;;;;23.47;100.00;99676.53;1678468;83;21098;-61
2022/06/07 10:28:02;;;;;;;0.40;0.30;;;;;;;23.48;100.00;99668.11;1742602;80;21047;-61
2022/06/07 10:30:49;;;;;;;1.60;0.30;;;;;;;23.50;100.00;99668.86;1754034;79;21434;-61
2022/06/07 10:33:27;;;;;;;0.40;0.37;;;;;;;23.51;100.00;99665.09;1760178;79;21078;-61
2022/06/07 10:36:11;;;;;;;1.05;0.30;;;;;;;23.53;100.00;99664.43;1760072;80;21269;-60
2022/06/07 10:39:20;;;;;;;1.02;0.30;;;;;;;23.57;100.00;99660.84;1761046;80;21104;-61
2022/06/07 10:42:26;;;;;;;0.30;0.30;;;;;;;23.59;100.00;99658.80;1756576;80;21104;-60
2022/06/07 10:44:58;;;;;;;0.23;0.20;;;;;;;23.63;100.00;99656.10;1712116;80;21058;-61
2022/06/07 10:47:35;;;;;;;0.30;0.30;;;;;;;23.71;100.00;99657.03;1760471;80;21037;-62
2022/06/07 10:50:41;;;;;;;0.53;0.30;;;;;;;23.78;100.00;99649.00;1762786;80;21132;-61
2022/06/07 10:53:30;;;;;;;0.30;0.30;;;;;;;23.85;100.00;99649.22;1756866;80;21536;-61
2022/06/07 10:56:16;;;;;;;0.35;0.25;;;;;;;23.87;100.00;99653.53;1756461;79;21070;-61
2022/06/07 10:58:47;;;;;;;1.10;0.30;;;;;;;23.88;100.00;99637.91;1763432;79;21705;-62
2022/06/07 11:01:19;;;;;;;1.10;0.78;;;;;;;23.88;100.00;99642.89;1762080;80;22276;-60
2022/06/07 11:10:26;;;;;;;0.40;0.40;;;;;;;23.98;100.00;99638.16;1766031;80;21040;-59
2022/06/07 11:13:23;;;;;;;0.30;0.30;;;;;;;24.10;100.00;99630.47;1759991;80;21057;-60
2022/06/07 11:15:55;;;;;;;0.93;0.42;;;;;;;24.22;100.00;99626.47;1763719;79;21057;-58
2022/06/07 11:18:25;;;;;;;1.57;0.50;;;;;;;24.34;100.00;99621.00;1760010;80;21496;-60
2022/06/07 11:21:06;;;;;;;2.35;0.20;;;;;;;24.41;100.00;99611.61;1754595;80;21042;-60
2022/06/07 11:23:57;;;;;;;0.65;0.40;;;;;;;24.49;100.00;99608.89;1761405;80;21437;-59
2022/06/07 11:26:24;;;;;;;0.50;0.30;;;;;;;24.57;100.00;99609.42;1720289;80;21077;-59
2022/06/07 11:28:56;;;;;;;1.17;0.30;;;;;;;24.60;100.00;99611.83;1738644;80;21094;-61
2022/06/07 11:31:40;;;;;;;1.25;0.30;;;;;;;24.57;100.00;99604.78;1761993;80;21162;-60
2022/06/07 11:34:26;;;;;;;0.47;0.40;;;;;;;24.59;100.00;99605.45;1762027;80;21174;-60
2022/06/07 11:37:20;;;;;;;0.53;0.30;;;;;;;24.65;100.00;99604.81;1752358;80;21216;-59
2022/06/07 11:39:55;;;;;;;2.42;0.30;;;;;;;24.72;100.00;99605.86;1758469;80;21490;-60
2022/06/07 11:42:33;;;;;;;0.30;0.30;;;;;;;24.79;100.00;99593.14;1756873;80;20931;-60
2022/06/07 11:45:24;;;;;;;0.40;0.40;;;;;;;24.87;100.00;99589.55;1764966;80;21248;-60
2022/06/07 11:47:59;;;;;;;0.47;0.33;;;;;;;24.95;100.00;99586.84;1758064;79;20868;-61
2022/06/07 11:50:55;;;;;;;0.50;0.30;;;;;;;25.06;100.00;99583.77;1699733;82;20882;-60
2022/06/07 11:53:33;;;;;;;0.30;0.30;;;;;;;25.14;100.00;99585.66;1697041;83;20913;-59
2022/06/07 11:56:14;;;;;;;1.65;0.50;;;;;;;25.22;100.00;99583.77;1692892;82;21034;-61
2022/06/07 11:59:00;;;;;;;0.98;0.55;;;;;;;25.31;100.00;99584.64;1761982;80;21130;-61
2022/06/07 12:01:40;;;;;;;2.35;0.30;;;;;;;25.38;100.00;99580.16;1764914;80;20887;-61
2022/06/07 12:04:32;;;;;;;0.55;0.55;;;;;;;25.40;100.00;99572.59;1757717;80;21064;-61
2022/06/07 12:07:27;;;;;;;0.25;0.25;;;;;;;25.39;100.00;99572.23;1761426;80;21008;-61
2022/06/07 12:10:00;;;;;;;0.30;0.30;;;;;;;25.40;100.00;99560.70;1765769;80;20939;-59
2022/06/07 12:12:37;;;;;;;0.40;0.30;;;;;;;25.43;100.00;99575.01;1766850;80;21048;-61
2022/06/07 12:15:18;;;;;;;2.95;0.35;;;;;;;25.46;100.00;99564.99;1762868;80;21363;-61
2022/06/07 12:18:01;;;;;;;0.30;0.30;;;;;;;25.48;100.00;99564.31;1768646;80;21219;-61
2022/06/07 12:22:06;;;;;;;0.30;0.23;;;;;;;25.56;100.00;99562.06;1790186;78;23995;-61
2022/06/07 12:24:46;;;;;;;1.75;0.30;;;;;;;25.58;100.00;99562.24;1771009;79;21105;-59
2022/06/07 12:27:47;;;;;;;5.45;0.40;;;;;;;25.67;100.00;99559.50;1766270;79;21238;-58
2022/06/07 12:30:29;;;;;;;0.50;0.20;;;;;;;25.73;100.00;99554.66;1765234;79;21116;-61
2022/06/07 12:32:59;;;;;;;1.75;0.50;;;;;;;25.80;100.00;99551.02;1766115;79;21261;-60
2022/06/07 12:35:28;;;;;;;0.62;0.20;;;;;;;25.86;100.00;99551.69;1761756;79;21463;-63
2022/06/07 12:38:00;;;;;;;0.23;0.23;;;;;;;25.92;100.00;99551.00;1773714;79;21013;-61
2022/06/07 12:40:58;;;;;;;1.35;0.30;;;;;;;25.95;100.00;99547.01;1764991;79;21152;-61
2022/06/07 12:43:28;;;;;;;0.70;0.28;;;;;;;25.97;100.00;99540.80;1766436;79;20974;-60
2022/06/07 12:46:07;;;;;;;0.82;0.25;;;;;;;25.99;100.00;99543.73;1764727;79;21565;-60
2022/06/07 12:48:37;;;;;;;0.95;0.30;;;;;;;26.02;100.00;99542.53;1766407;79;21725;-59
2022/06/07 12:51:23;;;;;;;1.07;0.30;;;;;;;26.06;100.00;99534.23;1770054;80;21068;-58
2022/06/07 12:53:52;;;;;;;0.30;0.28;;;;;;;26.09;100.00;99533.88;1757869;79;21298;-60
2022/06/07 12:56:19;;;;;;;0.20;0.20;;;;;;;26.14;100.00;99536.95;1763512;79;21326;-59
2022/06/07 12:58:49;;;;;;;2.33;0.30;;;;;;;26.16;100.00;99526.61;1745014;80;21040;-59
2022/06/07 13:01:24;;;;;;;0.25;0.25;;;;;;;26.20;100.00;99520.22;1750650;80;21096;-60
2022/06/07 13:03:56;;;;;;;2.22;0.33;;;;;;;26.21;100.00;99518.64;1743200;80;21024;-61
2022/06/07 13:06:24;;;;;;;0.20;0.20;;;;;;;26.23;100.00;99523.47;1741045;80;21095;-57
2022/06/07 13:09:04;;;;;;;1.12;0.30;;;;;;;26.26;100.00;99520.39;1744647;80;21089;-59